sensor_id;sensor_type;location;lat;lon;timestamp;P1;durP1;ratioP1;P2;durP2;ratioP2
18659;SDS011;9459;50.254;19.014;2022-09-03T00:00:50;5.32;;;2.42;;
18659;SDS011;9459;50.254;19.014;2022-09-03T00:03:21;7.78;;;2.42;;
18659;SDS011;9459;50.254;19.014;2022-09-03T00:05:54;5.05;;;2.20;;
18659;SDS011;9459;50.254;19.014;2022-09-03T00:08:29;5.03;;;2.38;;
18659;SDS011;9459;50.254;19.014;2022-09-03T00:11:02;4.15;;;2.13;;
18659;SDS011;9459;50.254;19.014;2022-09-03T00:13:34;4.50;;;2.03;;
18659;SDS011;9459;50.254;19.014;2022-09-03T00:16:05;5.10;;;2.75;;
18659;SDS011;9459;50.254;19.014;2022-09-03T00:18:40;5.28;;;2.38;;
18659;SDS011;9459;50.254;19.014;2022-09-03T00:21:11;6.00;;;2.70;;
18659;SDS011;9459;50.254;19.014;2022-09-03T00:23:43;7.35;;;2.65;;
18659;SDS011;9459;50.254;19.014;2022-09-03T00:26:17;7.57;;;2.60;;
18659;SDS011;9459;50.254;19.014;2022-09-03T00:28:53;4.15;;;2.03;;
18659;SDS011;9459;50.254;19.014;2022-09-03T00:31:27;6.55;;;2.05;;
18659;SDS011;9459;50.254;19.014;2022-09-03T00:33:59;4.68;;;1.95;;
18659;SDS011;9459;50.254;19.014;2022-09-03T00:36:30;5.10;;;2.22;;
18659;SDS011;9459;50.254;19.014;2022-09-03T00:39:01;4.95;;;2.30;;
18659;SDS011;9459;50.254;19.014;2022-09-03T00:41:32;6.82;;;2.05;;
18659;SDS011;9459;50.254;19.014;2022-09-03T00:44:13;3.80;;;2.08;;
18659;SDS011;9459;50.254;19.014;2022-09-03T00:46:52;2.97;;;1.77;;
18659;SDS011;9459;50.254;19.014;2022-09-03T00:49:27;3.72;;;2.00;;
18659;SDS011;9459;50.254;19.014;2022-09-03T00:52:05;4.22;;;2.00;;
18659;SDS011;9459;50.254;19.014;2022-09-03T00:54:40;4.65;;;2.10;;
18659;SDS011;9459;50.254;19.014;2022-09-03T00:57:16;6.28;;;2.05;;
18659;SDS011;9459;50.254;19.014;2022-09-03T00:59:54;4.93;;;2.25;;
18659;SDS011;9459;50.254;19.014;2022-09-03T01:02:26;6.07;;;2.13;;
18659;SDS011;9459;50.254;19.014;2022-09-03T01:05:01;4.95;;;2.22;;
18659;SDS011;9459;50.254;19.014;2022-09-03T01:07:34;7.40;;;2.00;;
18659;SDS011;9459;50.254;19.014;2022-09-03T01:10:12;8.23;;;2.63;;
18659;SDS011;9459;50.254;19.014;2022-09-03T01:12:49;4.35;;;2.22;;
18659;SDS011;9459;50.254;19.014;2022-09-03T01:15:21;4.93;;;2.28;;
18659;SDS011;9459;50.254;19.014;2022-09-03T01:18:00;4.97;;;2.50;;
18659;SDS011;9459;50.254;19.014;2022-09-03T01:20:39;5.85;;;2.30;;
18659;SDS011;9459;50.254;19.014;2022-09-03T01:23:29;7.70;;;2.35;;
18659;SDS011;9459;50.254;19.014;2022-09-03T01:26:26;5.70;;;2.20;;
18659;SDS011;9459;50.254;19.014;2022-09-03T01:29:01;5.35;;;1.88;;
18659;SDS011;9459;50.254;19.014;2022-09-03T01:31:38;7.50;;;2.20;;
18659;SDS011;9459;50.254;19.014;2022-09-03T01:34:15;4.85;;;2.05;;
18659;SDS011;9459;50.254;19.014;2022-09-03T01:36:51;3.00;;;1.85;;
18659;SDS011;9459;50.254;19.014;2022-09-03T01:39:28;4.97;;;2.13;;
18659;SDS011;9459;50.254;19.014;2022-09-03T01:42:05;3.88;;;2.30;;
18659;SDS011;9459;50.254;19.014;2022-09-03T01:44:51;2.85;;;2.13;;
18659;SDS011;9459;50.254;19.014;2022-09-03T01:47:47;3.67;;;1.83;;
18659;SDS011;9459;50.254;19.014;2022-09-03T01:50:32;3.47;;;2.08;;
18659;SDS011;9459;50.254;19.014;2022-09-03T01:53:09;2.22;;;1.52;;
18659;SDS011;9459;50.254;19.014;2022-09-03T01:55:43;6.38;;;1.55;;
18659;SDS011;9459;50.254;19.014;2022-09-03T01:58:25;5.72;;;2.22;;
18659;SDS011;9459;50.254;19.014;2022-09-03T02:00:59;3.20;;;1.95;;
18659;SDS011;9459;50.254;19.014;2022-09-03T02:03:32;6.47;;;2.80;;
18659;SDS011;9459;50.254;19.014;2022-09-03T02:06:06;3.72;;;1.85;;
18659;SDS011;9459;50.254;19.014;2022-09-03T02:08:36;3.53;;;1.73;;
18659;SDS011;9459;50.254;19.014;2022-09-03T02:11:04;3.90;;;2.30;;
18659;SDS011;9459;50.254;19.014;2022-09-03T02:13:35;5.78;;;2.35;;
18659;SDS011;9459;50.254;19.014;2022-09-03T02:16:09;3.42;;;2.20;;
18659;SDS011;9459;50.254;19.014;2022-09-03T02:18:40;3.35;;;2.10;;
18659;SDS011;9459;50.254;19.014;2022-09-03T02:21:10;3.45;;;1.90;;
18659;SDS011;9459;50.254;19.014;2022-09-03T02:23:40;5.90;;;2.28;;
18659;SDS011;9459;50.254;19.014;2022-09-03T02:26:09;3.88;;;1.80;;
18659;SDS011;9459;50.254;19.014;2022-09-03T02:28:39;3.38;;;1.95;;
18659;SDS011;9459;50.254;19.014;2022-09-03T02:31:08;5.30;;;2.22;;
18659;SDS011;9459;50.254;19.014;2022-09-03T02:33:37;4.85;;;2.15;;
18659;SDS011;9459;50.254;19.014;2022-09-03T02:36:09;4.10;;;1.98;;
18659;SDS011;9459;50.254;19.014;2022-09-03T02:38:39;2.67;;;1.58;;
18659;SDS011;9459;50.254;19.014;2022-09-03T02:41:08;5.13;;;2.20;;
18659;SDS011;9459;50.254;19.014;2022-09-03T02:43:41;5.32;;;2.30;;
18659;SDS011;9459;50.254;19.014;2022-09-03T02:48:41;3.25;;;1.95;;
18659;SDS011;9459;50.254;19.014;2022-09-03T02:51:09;4.85;;;2.50;;
18659;SDS011;9459;50.254;19.014;2022-09-03T02:53:40;4.55;;;2.15;;
18659;SDS011;9459;50.254;19.014;2022-09-03T02:56:08;4.25;;;2.10;;
18659;SDS011;9459;50.254;19.014;2022-09-03T02:58:37;7.10;;;2.15;;
18659;SDS011;9459;50.254;19.014;2022-09-03T03:01:05;4.95;;;2.10;;
18659;SDS011;9459;50.254;19.014;2022-09-03T03:03:35;3.50;;;1.95;;
18659;SDS011;9459;50.254;19.014;2022-09-03T03:06:03;5.00;;;2.55;;
18659;SDS011;9459;50.254;19.014;2022-09-03T03:08:32;9.95;;;1.92;;
18659;SDS011;9459;50.254;19.014;2022-09-03T03:11:00;6.35;;;2.08;;
18659;SDS011;9459;50.254;19.014;2022-09-03T03:13:29;3.50;;;2.38;;
18659;SDS011;9459;50.254;19.014;2022-09-03T03:15:59;5.72;;;2.50;;
18659;SDS011;9459;50.254;19.014;2022-09-03T03:18:28;4.28;;;2.22;;
18659;SDS011;9459;50.254;19.014;2022-09-03T03:20:57;4.38;;;2.60;;
18659;SDS011;9459;50.254;19.014;2022-09-03T03:23:31;8.35;;;3.00;;
18659;SDS011;9459;50.254;19.014;2022-09-03T03:25:59;4.75;;;2.30;;
18659;SDS011;9459;50.254;19.014;2022-09-03T03:28:28;8.05;;;2.63;;
18659;SDS011;9459;50.254;19.014;2022-09-03T03:31:04;4.75;;;2.60;;
18659;SDS011;9459;50.254;19.014;2022-09-03T03:33:33;4.20;;;2.70;;
18659;SDS011;9459;50.254;19.014;2022-09-03T03:36:07;7.03;;;2.92;;
18659;SDS011;9459;50.254;19.014;2022-09-03T03:38:36;4.18;;;2.63;;
18659;SDS011;9459;50.254;19.014;2022-09-03T03:41:06;4.57;;;3.10;;
18659;SDS011;9459;50.254;19.014;2022-09-03T03:43:35;5.20;;;3.30;;
18659;SDS011;9459;50.254;19.014;2022-09-03T03:46:03;7.20;;;2.97;;
18659;SDS011;9459;50.254;19.014;2022-09-03T03:48:31;4.63;;;2.83;;
18659;SDS011;9459;50.254;19.014;2022-09-03T03:51:00;5.28;;;3.00;;
18659;SDS011;9459;50.254;19.014;2022-09-03T03:53:31;4.93;;;3.08;;
18659;SDS011;9459;50.254;19.014;2022-09-03T03:56:00;6.03;;;3.28;;
18659;SDS011;9459;50.254;19.014;2022-09-03T03:58:30;7.68;;;2.80;;
18659;SDS011;9459;50.254;19.014;2022-09-03T04:01:02;4.95;;;2.90;;
18659;SDS011;9459;50.254;19.014;2022-09-03T04:03:32;9.43;;;3.03;;
18659;SDS011;9459;50.254;19.014;2022-09-03T04:06:00;9.30;;;3.20;;
18659;SDS011;9459;50.254;19.014;2022-09-03T04:08:33;6.35;;;2.78;;
18659;SDS011;9459;50.254;19.014;2022-09-03T04:11:02;4.60;;;2.90;;
18659;SDS011;9459;50.254;19.014;2022-09-03T04:13:33;3.75;;;2.22;;
18659;SDS011;9459;50.254;19.014;2022-09-03T04:16:03;5.28;;;3.15;;
18659;SDS011;9459;50.254;19.014;2022-09-03T04:18:32;6.70;;;3.00;;
18659;SDS011;9459;50.254;19.014;2022-09-03T04:21:01;6.35;;;3.03;;
18659;SDS011;9459;50.254;19.014;2022-09-03T04:23:32;6.15;;;3.33;;
18659;SDS011;9459;50.254;19.014;2022-09-03T04:26:00;7.40;;;3.38;;
18659;SDS011;9459;50.254;19.014;2022-09-03T04:28:30;7.18;;;2.97;;
18659;SDS011;9459;50.254;19.014;2022-09-03T04:30:59;5.65;;;2.97;;
18659;SDS011;9459;50.254;19.014;2022-09-03T04:33:29;7.03;;;3.00;;
18659;SDS011;9459;50.254;19.014;2022-09-03T04:36:01;6.10;;;3.00;;
18659;SDS011;9459;50.254;19.014;2022-09-03T04:38:34;5.35;;;2.72;;
18659;SDS011;9459;50.254;19.014;2022-09-03T04:41:03;6.55;;;3.10;;
18659;SDS011;9459;50.254;19.014;2022-09-03T04:43:31;13.75;;;3.65;;
18659;SDS011;9459;50.254;19.014;2022-09-03T04:46:00;8.40;;;3.47;;
18659;SDS011;9459;50.254;19.014;2022-09-03T04:48:30;6.95;;;3.38;;
18659;SDS011;9459;50.254;19.014;2022-09-03T04:51:02;7.97;;;3.50;;
18659;SDS011;9459;50.254;19.014;2022-09-03T04:53:33;9.32;;;3.25;;
18659;SDS011;9459;50.254;19.014;2022-09-03T04:58:38;7.25;;;3.58;;
18659;SDS011;9459;50.254;19.014;2022-09-03T05:01:10;7.22;;;3.10;;
18659;SDS011;9459;50.254;19.014;2022-09-03T05:03:39;5.32;;;2.80;;
18659;SDS011;9459;50.254;19.014;2022-09-03T05:06:08;7.00;;;3.53;;
18659;SDS011;9459;50.254;19.014;2022-09-03T05:08:37;4.97;;;3.25;;
18659;SDS011;9459;50.254;19.014;2022-09-03T05:11:06;7.57;;;3.30;;
18659;SDS011;9459;50.254;19.014;2022-09-03T05:13:34;7.13;;;3.50;;
18659;SDS011;9459;50.254;19.014;2022-09-03T05:16:04;9.80;;;3.58;;
18659;SDS011;9459;50.254;19.014;2022-09-03T05:18:33;7.05;;;3.65;;
18659;SDS011;9459;50.254;19.014;2022-09-03T05:21:03;5.75;;;3.40;;
18659;SDS011;9459;50.254;19.014;2022-09-03T05:23:34;8.82;;;4.05;;
18659;SDS011;9459;50.254;19.014;2022-09-03T05:28:38;8.50;;;3.55;;
18659;SDS011;9459;50.254;19.014;2022-09-03T05:31:08;7.38;;;2.90;;
18659;SDS011;9459;50.254;19.014;2022-09-03T05:33:38;8.30;;;3.22;;
18659;SDS011;9459;50.254;19.014;2022-09-03T05:36:08;11.52;;;3.05;;
18659;SDS011;9459;50.254;19.014;2022-09-03T05:38:38;5.65;;;3.15;;
18659;SDS011;9459;50.254;19.014;2022-09-03T05:41:08;8.40;;;4.00;;
18659;SDS011;9459;50.254;19.014;2022-09-03T05:43:37;6.45;;;3.17;;
18659;SDS011;9459;50.254;19.014;2022-09-03T05:46:06;7.25;;;3.30;;
18659;SDS011;9459;50.254;19.014;2022-09-03T05:48:37;7.15;;;3.00;;
18659;SDS011;9459;50.254;19.014;2022-09-03T05:51:07;7.63;;;3.40;;
18659;SDS011;9459;50.254;19.014;2022-09-03T05:53:36;6.78;;;3.00;;
18659;SDS011;9459;50.254;19.014;2022-09-03T05:56:08;5.78;;;3.13;;
18659;SDS011;9459;50.254;19.014;2022-09-03T05:58:38;6.63;;;3.65;;
18659;SDS011;9459;50.254;19.014;2022-09-03T06:01:09;7.95;;;3.55;;
18659;SDS011;9459;50.254;19.014;2022-09-03T06:03:40;8.60;;;3.50;;
18659;SDS011;9459;50.254;19.014;2022-09-03T06:06:09;6.82;;;3.60;;
18659;SDS011;9459;50.254;19.014;2022-09-03T06:08:39;5.25;;;2.97;;
18659;SDS011;9459;50.254;19.014;2022-09-03T06:11:12;7.88;;;3.65;;
18659;SDS011;9459;50.254;19.014;2022-09-03T06:13:40;10.88;;;3.47;;
18659;SDS011;9459;50.254;19.014;2022-09-03T06:16:08;5.57;;;3.20;;
18659;SDS011;9459;50.254;19.014;2022-09-03T06:18:36;6.32;;;3.53;;
18659;SDS011;9459;50.254;19.014;2022-09-03T06:21:05;6.78;;;3.10;;
18659;SDS011;9459;50.254;19.014;2022-09-03T06:23:34;8.43;;;4.05;;
18659;SDS011;9459;50.254;19.014;2022-09-03T06:26:07;6.45;;;3.75;;
18659;SDS011;9459;50.254;19.014;2022-09-03T06:28:39;7.88;;;3.55;;
18659;SDS011;9459;50.254;19.014;2022-09-03T06:31:09;6.10;;;3.35;;
18659;SDS011;9459;50.254;19.014;2022-09-03T06:33:40;6.60;;;3.00;;
18659;SDS011;9459;50.254;19.014;2022-09-03T06:36:10;5.28;;;3.30;;
18659;SDS011;9459;50.254;19.014;2022-09-03T06:38:40;5.38;;;3.00;;
18659;SDS011;9459;50.254;19.014;2022-09-03T06:41:10;8.23;;;3.20;;
18659;SDS011;9459;50.254;19.014;2022-09-03T06:43:49;5.72;;;2.70;;
18659;SDS011;9459;50.254;19.014;2022-09-03T06:46:19;7.57;;;3.60;;
18659;SDS011;9459;50.254;19.014;2022-09-03T06:48:49;5.55;;;2.97;;
18659;SDS011;9459;50.254;19.014;2022-09-03T06:51:19;6.38;;;2.83;;
18659;SDS011;9459;50.254;19.014;2022-09-03T06:53:49;7.28;;;3.25;;
18659;SDS011;9459;50.254;19.014;2022-09-03T06:56:20;5.10;;;2.90;;
18659;SDS011;9459;50.254;19.014;2022-09-03T06:58:53;8.52;;;2.80;;
18659;SDS011;9459;50.254;19.014;2022-09-03T07:03:52;9.90;;;2.70;;
18659;SDS011;9459;50.254;19.014;2022-09-03T07:06:23;6.45;;;2.70;;
18659;SDS011;9459;50.254;19.014;2022-09-03T07:08:52;6.43;;;3.45;;
18659;SDS011;9459;50.254;19.014;2022-09-03T07:11:24;6.40;;;3.30;;
18659;SDS011;9459;50.254;19.014;2022-09-03T07:13:56;5.93;;;2.47;;
18659;SDS011;9459;50.254;19.014;2022-09-03T07:16:26;4.63;;;2.67;;
18659;SDS011;9459;50.254;19.014;2022-09-03T07:18:55;7.28;;;2.70;;
18659;SDS011;9459;50.254;19.014;2022-09-03T07:21:24;4.07;;;2.28;;
18659;SDS011;9459;50.254;19.014;2022-09-03T07:23:53;3.90;;;2.45;;
18659;SDS011;9459;50.254;19.014;2022-09-03T07:26:23;6.22;;;2.50;;
18659;SDS011;9459;50.254;19.014;2022-09-03T07:28:52;6.00;;;2.40;;
18659;SDS011;9459;50.254;19.014;2022-09-03T07:31:23;4.80;;;2.55;;
18659;SDS011;9459;50.254;19.014;2022-09-03T07:33:53;4.35;;;2.45;;
18659;SDS011;9459;50.254;19.014;2022-09-03T07:36:23;5.70;;;2.22;;
18659;SDS011;9459;50.254;19.014;2022-09-03T07:38:54;5.82;;;2.20;;
18659;SDS011;9459;50.254;19.014;2022-09-03T07:41:24;3.22;;;2.03;;
18659;SDS011;9459;50.254;19.014;2022-09-03T07:43:54;3.45;;;1.80;;
18659;SDS011;9459;50.254;19.014;2022-09-03T07:46:24;4.00;;;2.10;;
18659;SDS011;9459;50.254;19.014;2022-09-03T07:48:55;2.95;;;1.70;;
18659;SDS011;9459;50.254;19.014;2022-09-03T07:51:24;5.40;;;1.85;;
18659;SDS011;9459;50.254;19.014;2022-09-03T07:53:54;3.45;;;1.50;;
18659;SDS011;9459;50.254;19.014;2022-09-03T07:56:24;3.22;;;1.45;;
18659;SDS011;9459;50.254;19.014;2022-09-03T07:58:52;2.25;;;1.30;;
18659;SDS011;9459;50.254;19.014;2022-09-03T08:01:22;3.53;;;1.45;;
18659;SDS011;9459;50.254;19.014;2022-09-03T08:03:53;5.90;;;1.40;;
18659;SDS011;9459;50.254;19.014;2022-09-03T08:06:23;4.43;;;1.20;;
18659;SDS011;9459;50.254;19.014;2022-09-03T08:08:55;1.58;;;1.10;;
18659;SDS011;9459;50.254;19.014;2022-09-03T08:11:31;2.03;;;1.27;;
18659;SDS011;9459;50.254;19.014;2022-09-03T08:14:01;4.18;;;1.55;;
18659;SDS011;9459;50.254;19.014;2022-09-03T08:16:33;2.53;;;1.33;;
18659;SDS011;9459;50.254;19.014;2022-09-03T08:19:03;2.22;;;1.42;;
18659;SDS011;9459;50.254;19.014;2022-09-03T08:21:33;2.35;;;1.38;;
18659;SDS011;9459;50.254;19.014;2022-09-03T08:24:02;2.20;;;1.70;;
18659;SDS011;9459;50.254;19.014;2022-09-03T08:26:32;3.90;;;1.92;;
18659;SDS011;9459;50.254;19.014;2022-09-03T08:29:02;4.40;;;1.55;;
18659;SDS011;9459;50.254;19.014;2022-09-03T08:31:31;3.00;;;1.80;;
18659;SDS011;9459;50.254;19.014;2022-09-03T08:34:01;4.13;;;1.90;;
18659;SDS011;9459;50.254;19.014;2022-09-03T08:36:33;3.42;;;1.70;;
18659;SDS011;9459;50.254;19.014;2022-09-03T08:39:03;3.65;;;1.70;;
18659;SDS011;9459;50.254;19.014;2022-09-03T08:41:39;3.33;;;1.67;;
18659;SDS011;9459;50.254;19.014;2022-09-03T08:44:19;3.63;;;1.63;;
18659;SDS011;9459;50.254;19.014;2022-09-03T08:46:53;2.58;;;1.52;;
18659;SDS011;9459;50.254;19.014;2022-09-03T08:49:26;3.13;;;1.73;;
18659;SDS011;9459;50.254;19.014;2022-09-03T08:51:59;3.60;;;1.70;;
18659;SDS011;9459;50.254;19.014;2022-09-03T08:54:29;2.83;;;1.75;;
18659;SDS011;9459;50.254;19.014;2022-09-03T08:56:59;2.47;;;1.48;;
18659;SDS011;9459;50.254;19.014;2022-09-03T08:59:29;2.83;;;1.73;;
18659;SDS011;9459;50.254;19.014;2022-09-03T09:02:01;4.33;;;1.60;;
18659;SDS011;9459;50.254;19.014;2022-09-03T09:04:42;2.33;;;1.40;;
18659;SDS011;9459;50.254;19.014;2022-09-03T09:09:48;3.85;;;1.77;;
18659;SDS011;9459;50.254;19.014;2022-09-03T09:12:23;3.67;;;1.70;;
18659;SDS011;9459;50.254;19.014;2022-09-03T09:15:12;2.03;;;1.48;;
18659;SDS011;9459;50.254;19.014;2022-09-03T09:17:58;3.85;;;1.60;;
18659;SDS011;9459;50.254;19.014;2022-09-03T09:20:34;2.08;;;1.65;;
18659;SDS011;9459;50.254;19.014;2022-09-03T09:23:09;2.30;;;1.52;;
18659;SDS011;9459;50.254;19.014;2022-09-03T09:25:43;1.77;;;1.60;;
18659;SDS011;9459;50.254;19.014;2022-09-03T09:28:16;4.38;;;1.75;;
18659;SDS011;9459;50.254;19.014;2022-09-03T09:30:46;2.25;;;1.60;;
18659;SDS011;9459;50.254;19.014;2022-09-03T09:33:16;4.28;;;1.90;;
18659;SDS011;9459;50.254;19.014;2022-09-03T09:35:47;2.10;;;1.50;;
18659;SDS011;9459;50.254;19.014;2022-09-03T09:38:26;2.55;;;1.60;;
18659;SDS011;9459;50.254;19.014;2022-09-03T09:40:55;2.05;;;1.58;;
18659;SDS011;9459;50.254;19.014;2022-09-03T09:43:25;3.95;;;1.90;;
18659;SDS011;9459;50.254;19.014;2022-09-03T09:45:53;2.60;;;1.92;;
18659;SDS011;9459;50.254;19.014;2022-09-03T09:48:22;2.95;;;1.90;;
18659;SDS011;9459;50.254;19.014;2022-09-03T09:51:04;2.65;;;1.90;;
18659;SDS011;9459;50.254;19.014;2022-09-03T09:53:33;3.97;;;2.25;;
18659;SDS011;9459;50.254;19.014;2022-09-03T09:56:02;2.97;;;2.15;;
18659;SDS011;9459;50.254;19.014;2022-09-03T09:58:31;4.40;;;2.42;;
18659;SDS011;9459;50.254;19.014;2022-09-03T10:01:01;2.35;;;2.13;;
18659;SDS011;9459;50.254;19.014;2022-09-03T10:03:39;7.45;;;2.30;;
18659;SDS011;9459;50.254;19.014;2022-09-03T10:06:11;2.20;;;1.83;;
18659;SDS011;9459;50.254;19.014;2022-09-03T10:09:08;3.08;;;1.77;;
18659;SDS011;9459;50.254;19.014;2022-09-03T10:11:39;2.60;;;1.98;;
18659;SDS011;9459;50.254;19.014;2022-09-03T10:14:12;3.90;;;2.13;;
18659;SDS011;9459;50.254;19.014;2022-09-03T10:16:46;5.43;;;2.22;;
18659;SDS011;9459;50.254;19.014;2022-09-03T10:19:22;3.15;;;2.33;;
18659;SDS011;9459;50.254;19.014;2022-09-03T10:21:54;2.38;;;2.05;;
18659;SDS011;9459;50.254;19.014;2022-09-03T10:24:35;2.95;;;2.17;;
18659;SDS011;9459;50.254;19.014;2022-09-03T10:27:09;2.42;;;1.88;;
18659;SDS011;9459;50.254;19.014;2022-09-03T10:29:39;2.20;;;1.85;;
18659;SDS011;9459;50.254;19.014;2022-09-03T10:32:23;3.42;;;2.15;;
18659;SDS011;9459;50.254;19.014;2022-09-03T10:35:09;2.38;;;2.00;;
18659;SDS011;9459;50.254;19.014;2022-09-03T10:37:43;3.17;;;2.03;;
18659;SDS011;9459;50.254;19.014;2022-09-03T10:40:21;2.33;;;1.83;;
18659;SDS011;9459;50.254;19.014;2022-09-03T10:43:04;3.45;;;1.70;;
18659;SDS011;9459;50.254;19.014;2022-09-03T10:45:45;4.78;;;2.10;;
18659;SDS011;9459;50.254;19.014;2022-09-03T10:51:16;2.63;;;1.80;;
18659;SDS011;9459;50.254;19.014;2022-09-03T10:53:53;2.28;;;1.85;;
18659;SDS011;9459;50.254;19.014;2022-09-03T10:56:31;2.38;;;2.05;;
18659;SDS011;9459;50.254;19.014;2022-09-03T10:59:03;2.65;;;1.80;;
18659;SDS011;9459;50.254;19.014;2022-09-03T11:01:40;4.43;;;2.10;;
18659;SDS011;9459;50.254;19.014;2022-09-03T11:04:17;5.22;;;2.03;;
18659;SDS011;9459;50.254;19.014;2022-09-03T11:06:49;5.57;;;2.03;;
18659;SDS011;9459;50.254;19.014;2022-09-03T11:09:22;3.42;;;2.20;;
18659;SDS011;9459;50.254;19.014;2022-09-03T11:11:53;2.63;;;2.05;;
18659;SDS011;9459;50.254;19.014;2022-09-03T11:14:27;2.47;;;1.90;;
18659;SDS011;9459;50.254;19.014;2022-09-03T11:17:01;2.80;;;2.00;;
18659;SDS011;9459;50.254;19.014;2022-09-03T11:19:33;2.33;;;1.75;;
18659;SDS011;9459;50.254;19.014;2022-09-03T11:22:04;3.28;;;2.00;;
18659;SDS011;9459;50.254;19.014;2022-09-03T11:24:35;3.00;;;2.10;;
18659;SDS011;9459;50.254;19.014;2022-09-03T11:27:13;3.28;;;2.13;;
18659;SDS011;9459;50.254;19.014;2022-09-03T11:29:49;5.07;;;2.35;;
18659;SDS011;9459;50.254;19.014;2022-09-03T11:32:20;3.40;;;2.28;;
18659;SDS011;9459;50.254;19.014;2022-09-03T11:34:51;4.43;;;2.28;;
18659;SDS011;9459;50.254;19.014;2022-09-03T11:37:21;4.72;;;2.20;;
18659;SDS011;9459;50.254;19.014;2022-09-03T11:39:55;2.42;;;2.20;;
18659;SDS011;9459;50.254;19.014;2022-09-03T11:42:29;3.72;;;2.10;;
18659;SDS011;9459;50.254;19.014;2022-09-03T11:45:11;2.53;;;2.22;;
18659;SDS011;9459;50.254;19.014;2022-09-03T11:47:41;5.72;;;2.60;;
18659;SDS011;9459;50.254;19.014;2022-09-03T11:50:16;2.50;;;2.10;;
18659;SDS011;9459;50.254;19.014;2022-09-03T11:52:47;5.57;;;2.40;;
18659;SDS011;9459;50.254;19.014;2022-09-03T11:55:25;3.80;;;2.50;;
18659;SDS011;9459;50.254;19.014;2022-09-03T11:58:09;3.97;;;2.38;;
18659;SDS011;9459;50.254;19.014;2022-09-03T12:00:39;2.60;;;2.40;;
18659;SDS011;9459;50.254;19.014;2022-09-03T12:03:11;3.72;;;2.85;;
18659;SDS011;9459;50.254;19.014;2022-09-03T12:05:47;7.65;;;2.83;;
18659;SDS011;9459;50.254;19.014;2022-09-03T12:11:42;5.63;;;2.72;;
18659;SDS011;9459;50.254;19.014;2022-09-03T12:14:18;2.97;;;2.67;;
18659;SDS011;9459;50.254;19.014;2022-09-03T12:16:51;4.72;;;2.80;;
18659;SDS011;9459;50.254;19.014;2022-09-03T12:19:26;6.25;;;2.88;;
18659;SDS011;9459;50.254;19.014;2022-09-03T12:21:59;3.53;;;3.22;;
18659;SDS011;9459;50.254;19.014;2022-09-03T12:24:30;3.55;;;2.97;;
18659;SDS011;9459;50.254;19.014;2022-09-03T12:27:05;3.92;;;2.97;;
18659;SDS011;9459;50.254;19.014;2022-09-03T12:29:35;3.65;;;2.72;;
18659;SDS011;9459;50.254;19.014;2022-09-03T12:32:07;3.17;;;2.88;;
18659;SDS011;9459;50.254;19.014;2022-09-03T12:34:36;4.38;;;2.92;;
18659;SDS011;9459;50.254;19.014;2022-09-03T12:37:13;4.30;;;2.88;;
18659;SDS011;9459;50.254;19.014;2022-09-03T12:40:14;3.47;;;2.97;;
18659;SDS011;9459;50.254;19.014;2022-09-03T12:42:45;4.40;;;2.53;;
18659;SDS011;9459;50.254;19.014;2022-09-03T12:45:17;3.17;;;2.75;;
18659;SDS011;9459;50.254;19.014;2022-09-03T12:47:46;4.30;;;3.40;;
18659;SDS011;9459;50.254;19.014;2022-09-03T12:50:16;4.43;;;2.97;;
18659;SDS011;9459;50.254;19.014;2022-09-03T12:52:46;3.70;;;3.17;;
18659;SDS011;9459;50.254;19.014;2022-09-03T12:55:27;3.65;;;3.10;;
18659;SDS011;9459;50.254;19.014;2022-09-03T12:58:02;3.42;;;2.80;;
18659;SDS011;9459;50.254;19.014;2022-09-03T13:00:40;3.60;;;2.95;;
18659;SDS011;9459;50.254;19.014;2022-09-03T13:03:14;6.57;;;2.80;;
18659;SDS011;9459;50.254;19.014;2022-09-03T13:05:46;5.45;;;2.40;;
18659;SDS011;9459;50.254;19.014;2022-09-03T13:08:17;3.95;;;2.80;;
18659;SDS011;9459;50.254;19.014;2022-09-03T13:10:49;3.80;;;2.38;;
18659;SDS011;9459;50.254;19.014;2022-09-03T13:16:02;3.70;;;3.00;;
18659;SDS011;9459;50.254;19.014;2022-09-03T13:18:46;5.25;;;3.20;;
18659;SDS011;9459;50.254;19.014;2022-09-03T13:21:21;3.20;;;2.40;;
18659;SDS011;9459;50.254;19.014;2022-09-03T13:26:57;3.25;;;2.40;;
18659;SDS011;9459;50.254;19.014;2022-09-03T13:29:40;4.07;;;2.58;;
18659;SDS011;9459;50.254;19.014;2022-09-03T13:32:22;3.40;;;2.65;;
18659;SDS011;9459;50.254;19.014;2022-09-03T13:34:56;3.30;;;2.78;;
18659;SDS011;9459;50.254;19.014;2022-09-03T13:37:26;3.50;;;2.75;;
18659;SDS011;9459;50.254;19.014;2022-09-03T13:40:02;3.42;;;3.10;;
18659;SDS011;9459;50.254;19.014;2022-09-03T13:42:43;4.73;;;2.50;;
18659;SDS011;9459;50.254;19.014;2022-09-03T13:45:22;5.40;;;2.92;;
18659;SDS011;9459;50.254;19.014;2022-09-03T13:47:56;4.47;;;2.70;;
18659;SDS011;9459;50.254;19.014;2022-09-03T13:50:46;3.28;;;2.35;;
18659;SDS011;9459;50.254;19.014;2022-09-03T13:53:16;3.95;;;2.65;;
18659;SDS011;9459;50.254;19.014;2022-09-03T13:55:50;4.68;;;2.30;;
18659;SDS011;9459;50.254;19.014;2022-09-03T13:58:20;3.92;;;2.33;;
18659;SDS011;9459;50.254;19.014;2022-09-03T14:01:03;4.35;;;2.70;;
18659;SDS011;9459;50.254;19.014;2022-09-03T14:03:35;3.53;;;2.55;;
18659;SDS011;9459;50.254;19.014;2022-09-03T14:06:18;3.72;;;2.58;;
18659;SDS011;9459;50.254;19.014;2022-09-03T14:08:58;3.25;;;2.72;;
18659;SDS011;9459;50.254;19.014;2022-09-03T14:11:33;3.03;;;2.72;;
18659;SDS011;9459;50.254;19.014;2022-09-03T14:14:09;3.85;;;2.88;;
18659;SDS011;9459;50.254;19.014;2022-09-03T14:16:43;2.78;;;2.50;;
18659;SDS011;9459;50.254;19.014;2022-09-03T14:19:18;3.90;;;2.30;;
18659;SDS011;9459;50.254;19.014;2022-09-03T14:21:50;3.08;;;2.42;;
18659;SDS011;9459;50.254;19.014;2022-09-03T14:24:21;5.43;;;3.17;;
18659;SDS011;9459;50.254;19.014;2022-09-03T14:26:53;4.72;;;2.95;;
18659;SDS011;9459;50.254;19.014;2022-09-03T14:29:23;4.88;;;3.00;;
18659;SDS011;9459;50.254;19.014;2022-09-03T14:32:07;3.72;;;2.40;;
18659;SDS011;9459;50.254;19.014;2022-09-03T14:34:54;3.88;;;2.70;;
18659;SDS011;9459;50.254;19.014;2022-09-03T14:37:34;5.60;;;2.88;;
18659;SDS011;9459;50.254;19.014;2022-09-03T14:40:11;4.88;;;3.17;;
18659;SDS011;9459;50.254;19.014;2022-09-03T14:42:57;3.45;;;2.92;;
18659;SDS011;9459;50.254;19.014;2022-09-03T14:45:44;3.67;;;2.58;;
18659;SDS011;9459;50.254;19.014;2022-09-03T14:48:55;4.72;;;2.70;;
18659;SDS011;9459;50.254;19.014;2022-09-03T14:51:33;2.95;;;2.58;;
18659;SDS011;9459;50.254;19.014;2022-09-03T14:54:22;3.15;;;2.47;;
18659;SDS011;9459;50.254;19.014;2022-09-03T14:57:08;3.20;;;2.20;;
18659;SDS011;9459;50.254;19.014;2022-09-03T14:59:54;5.00;;;2.70;;
18659;SDS011;9459;50.254;19.014;2022-09-03T15:05:40;3.22;;;2.67;;
18659;SDS011;9459;50.254;19.014;2022-09-03T15:08:32;2.85;;;2.30;;
18659;SDS011;9459;50.254;19.014;2022-09-03T15:11:12;3.88;;;2.50;;
18659;SDS011;9459;50.254;19.014;2022-09-03T15:13:44;3.15;;;2.47;;
18659;SDS011;9459;50.254;19.014;2022-09-03T15:16:19;3.33;;;2.58;;
18659;SDS011;9459;50.254;19.014;2022-09-03T15:19:08;5.43;;;2.90;;
18659;SDS011;9459;50.254;19.014;2022-09-03T15:21:44;3.72;;;2.83;;
18659;SDS011;9459;50.254;19.014;2022-09-03T15:24:20;4.03;;;2.50;;
18659;SDS011;9459;50.254;19.014;2022-09-03T15:26:55;4.13;;;2.60;;
18659;SDS011;9459;50.254;19.014;2022-09-03T15:29:32;4.60;;;2.63;;
18659;SDS011;9459;50.254;19.014;2022-09-03T15:32:11;5.18;;;3.40;;
18659;SDS011;9459;50.254;19.014;2022-09-03T15:34:53;3.58;;;2.65;;
18659;SDS011;9459;50.254;19.014;2022-09-03T15:37:29;6.78;;;3.10;;
18659;SDS011;9459;50.254;19.014;2022-09-03T15:40:02;5.18;;;2.70;;
18659;SDS011;9459;50.254;19.014;2022-09-03T15:42:34;4.57;;;2.70;;
18659;SDS011;9459;50.254;19.014;2022-09-03T15:45:05;4.00;;;2.17;;
18659;SDS011;9459;50.254;19.014;2022-09-03T15:47:37;5.88;;;2.65;;
18659;SDS011;9459;50.254;19.014;2022-09-03T15:50:23;5.38;;;2.63;;
18659;SDS011;9459;50.254;19.014;2022-09-03T15:52:58;3.15;;;2.63;;